Portada
METAR-TAF:

METAR-TAF

Aeroports :

Tarakan, Indonèsia

latitud: 03-19-36N, longitud: 117-33-56E, altitud: 6 m

Observació

L'informe es va fer fa 5 hores i 6 minuts, a les 06:00 UTC
Vent 5 kt del Sud
Temperatura 31°C
Humitat 75%
Pressió 1008 hPa
Visibilitat 10 km o més
Núvols disperses a una alçada de 1500 ft

METAR: WAQQ 070600Z 17005KT 9999 SCT015 31/26 Q1008

Hora: 18:06 (11:06 UTC)

Pronòstic

L'informe es va fer fa 6 hores i 6 minuts, a les 05:00 UTC
Pronòstic vàlid del 07 a les 06 UTC al 07 a les 18 UTC
Vent 3 kt del Sud
Visibilitat 10 km o més
Núvols disperses a una alçada de 1500 ft
Evolucionant progressivament
l' 07 a les 10 UTC al 07 a les 12 UTC
Visibilitat: 8000 m

TAF: WAQQ 070500Z 0706/0718 18003KT 9999 SCT015 BECMG 0710/0712 8000

Observacions i pronòstics meteorològics de més de 4000 aeroports (METAR i TAF).

Les estacions disponibles són els punts grocs i vermells al mapa.

Posi el ratolí al punt desitjat per veure el nom de l'estació.

Feu clic per veure les observacions i els pronòstics meteorològics.

Per canviar el mapa: feu clic els botons verds amb una creu de color negre per apropar; al botó verd amb un guió per allunyar la imatge; o en les fletxes verdes per a mapes adjacents.


METAR-TAF: